Terminal Aerodrome Forecast
Issued by NWS

Home | Current Version | Previous Version | Text Only | Print | Product List | Glossary On
Versions: 1 2 3 4 5 6 7 8 9 10 11 12 13 14 15
140
FTUS45 KRIW 240537
TAFJAC
TAF
KJAC 240537Z 2406/2506 VRB05KT 3SM -SHSN BKN015 OVC030
     FM241600 19007KT P6SM VCSH SCT020 BKN035
     FM250300 VRB05KT P6SM SCT030 BKN050
      AMD LTD TO CLD VIS AND WIND=

USA.gov is the U.S. government's official web portal to all federal, state and local government web resources and services.